Time;durP1;ratioP1;P1;durP2;ratioP2;P2;SDS_P1;SDS_P2;PMS_P1;PMS_P2;Temp;Humidity;BMP_temperature;BMP_pressure;BME280_temperature;BME280_humidity;BME280_pressure;Samples;Min_cycle;Max_cycle;Signal;HPM_P1;HPM_P2
2021/12/24 00:01:22;;;;;;;10.47;8.60;;;10.00;99.90;;;;;;4897908;28;20456;-87
2021/12/24 00:03:49;;;;;;;10.60;8.07;;;10.00;99.90;;;;;;4895954;28;20593;-85
2021/12/24 00:06:16;;;;;;;13.70;9.13;;;10.10;99.90;;;;;;4923653;28;20455;-88
2021/12/24 00:08:47;;;;;;;12.17;7.93;;;10.00;99.90;;;;;;4927915;28;20511;-87
2021/12/24 00:11:28;;;;;;;13.07;8.80;;;9.90;99.90;;;;;;4945873;28;21398;-87
2021/12/24 00:13:55;;;;;;;12.93;9.20;;;9.90;99.90;;;;;;4958585;28;20470;-87
2021/12/24 00:16:31;;;;;;;12.17;8.27;;;9.90;99.90;;;;;;4966098;28;20525;-88
2021/12/24 00:19:12;;;;;;;10.47;7.70;;;9.90;99.90;;;;;;4932818;28;21271;-87
2021/12/24 00:35:17;;;;;;;8.17;7.30;;;10.00;99.90;;;;;;4944833;28;20520;-87
2021/12/24 00:37:46;;;;;;;12.30;8.50;;;10.00;99.90;;;;;;4918924;28;21047;-83
2021/12/24 00:40:18;;;;;;;7.90;7.03;;;9.90;99.90;;;;;;4904311;28;20467;-87
2021/12/24 00:42:53;;;;;;;9.43;7.80;;;10.00;99.90;;;;;;4912375;28;20588;-87
2021/12/24 00:45:29;;;;;;;11.10;8.30;;;10.00;99.90;;;;;;4895876;28;20512;-84
2021/12/24 00:48:00;;;;;;;10.27;7.57;;;9.90;99.90;;;;;;4907682;28;20492;-85
2021/12/24 00:50:31;;;;;;;10.03;7.33;;;10.10;99.90;;;;;;4937659;28;20460;-86
2021/12/24 00:53:02;;;;;;;9.40;6.97;;;10.10;99.90;;;;;;4938433;28;20460;-86
2021/12/24 00:55:31;;;;;;;8.90;7.90;;;10.00;99.90;;;;;;4915519;28;21447;-85
2021/12/24 00:58:02;;;;;;;10.10;8.30;;;10.00;99.90;;;;;;4886077;28;20488;-87
2021/12/24 01:00:32;;;;;;;8.50;7.60;;;10.00;99.90;;;;;;4895048;28;20449;-86
2021/12/24 01:03:07;;;;;;;8.83;7.70;;;10.00;99.90;;;;;;4901927;28;20474;-87
2021/12/24 01:05:35;;;;;;;9.47;7.70;;;9.90;99.90;;;;;;4889822;28;20684;-85
2021/12/24 01:08:03;;;;;;;8.20;7.30;;;9.90;99.90;;;;;;4923919;28;20468;-85
2021/12/24 01:10:33;;;;;;;8.10;6.63;;;9.90;99.90;;;;;;4936564;28;20547;-85
2021/12/24 01:13:01;;;;;;;8.70;7.80;;;9.90;99.90;;;;;;4940936;28;20448;-86
2021/12/24 01:15:29;;;;;;;9.30;7.27;;;9.90;99.90;;;;;;4829131;28;21040;-85
2021/12/24 01:18:25;;;;;;;9.57;7.70;;;9.90;99.90;;;;;;4901817;28;20954;-86
2021/12/24 01:21:03;;;;;;;9.53;7.50;;;9.90;99.90;;;;;;4911983;28;20444;-86
2021/12/24 01:23:46;;;;;;;8.70;7.30;;;9.90;99.90;;;;;;4886898;28;22234;-87
2021/12/24 01:26:21;;;;;;;7.83;6.93;;;9.90;99.90;;;;;;4903191;28;21223;-86
2021/12/24 01:45:24;;;;;;;8.73;7.60;;;10.10;99.90;;;;;;4906947;28;20495;-86
2021/12/24 01:48:05;;;;;;;7.93;7.13;;;10.00;99.90;;;;;;4925997;28;20672;-87
2021/12/24 01:50:33;;;;;;;8.33;7.00;;;10.10;99.90;;;;;;4941584;28;20472;-86
2021/12/24 01:53:02;;;;;;;10.80;8.60;;;10.00;99.90;;;;;;4936055;28;21021;-86
2021/12/24 01:55:29;;;;;;;8.77;6.70;;;10.00;99.90;;;;;;4901498;28;21435;-87
2021/12/24 01:57:56;;;;;;;8.27;7.40;;;10.00;99.90;;;;;;4897160;28;22314;-84
2021/12/24 02:00:32;;;;;;;7.73;6.90;;;10.00;99.90;;;;;;4900728;28;20521;-85
2021/12/24 02:03:13;;;;;;;11.10;8.30;;;10.00;99.90;;;;;;4883699;28;21302;-86
2021/12/24 02:05:41;;;;;;;8.87;7.13;;;10.00;99.90;;;;;;4895581;28;20879;-85
2021/12/24 02:08:10;;;;;;;8.13;6.53;;;10.00;99.90;;;;;;4935442;28;20510;-86
2021/12/24 02:10:37;;;;;;;8.70;7.80;;;10.10;99.90;;;;;;4948377;28;20564;-87
2021/12/24 02:13:04;;;;;;;7.60;6.80;;;10.10;99.90;;;;;;4948729;28;20834;-84
2021/12/24 02:15:48;;;;;;;8.33;6.70;;;10.00;99.90;;;;;;4935899;28;20724;-88
2021/12/24 02:29:36;;;;;;;7.23;6.53;;;10.00;99.90;;;;;;4942652;28;22102;-86
2021/12/24 02:32:13;;;;;;;7.63;6.53;;;10.00;99.90;;;;;;4936889;28;20918;-87
2021/12/24 02:34:43;;;;;;;8.33;7.43;;;10.00;99.90;;;;;;4914766;28;20675;-88
2021/12/24 02:37:10;;;;;;;9.90;7.27;;;10.10;99.90;;;;;;4897146;28;20454;-89
2021/12/24 02:39:37;;;;;;;10.10;7.23;;;10.20;99.90;;;;;;4898719;28;20494;-88
2021/12/24 02:42:16;;;;;;;10.50;7.77;;;10.20;99.90;;;;;;4911501;28;21062;-87
2021/12/24 02:44:48;;;;;;;10.37;6.97;;;10.30;99.90;;;;;;4902321;28;20492;-86
2021/12/24 02:55:06;;;;;;;7.20;6.30;;;10.10;99.90;;;;;;4909696;28;20524;-88
2021/12/24 02:57:38;;;;;;;8.00;6.83;;;10.10;99.90;;;;;;4917421;28;20456;-88
2021/12/24 03:00:19;;;;;;;7.97;6.73;;;10.10;99.90;;;;;;4930666;28;20985;-88
2021/12/24 03:02:49;;;;;;;7.70;6.37;;;10.10;99.90;;;;;;4912709;28;20468;-87
2021/12/24 03:05:17;;;;;;;9.73;6.60;;;10.10;99.90;;;;;;4909654;28;20741;-86
2021/12/24 03:07:45;;;;;;;6.77;6.10;;;10.10;99.90;;;;;;4923305;28;20501;-87
2021/12/24 03:10:16;;;;;;;7.97;6.37;;;10.10;99.90;;;;;;4932266;28;20464;-87
2021/12/24 03:12:46;;;;;;;9.97;6.80;;;10.10;99.90;;;;;;4941258;28;21704;-88
2021/12/24 03:15:16;;;;;;;7.47;6.73;;;10.20;99.90;;;;;;4926822;28;20466;-88
2021/12/24 03:17:48;;;;;;;11.90;7.37;;;10.20;99.90;;;;;;4917414;28;20463;-89
2021/12/24 03:20:16;;;;;;;10.27;7.20;;;10.20;99.90;;;;;;4899205;28;21668;-88
2021/12/24 03:25:17;;;;;;;11.60;7.77;;;10.20;99.90;;;;;;4905014;28;20484;-88
2021/12/24 03:27:45;;;;;;;9.87;7.20;;;10.30;99.90;;;;;;4907668;28;20495;-88
2021/12/24 03:30:12;;;;;;;13.67;7.77;;;10.30;99.90;;;;;;4949545;28;20897;-86
2021/12/24 03:32:40;;;;;;;11.17;7.47;;;10.30;99.90;;;;;;4947321;28;20552;-88
2021/12/24 03:35:07;;;;;;;10.73;6.37;;;10.20;99.90;;;;;;4935365;28;20547;-87
2021/12/24 03:37:34;;;;;;;10.10;7.53;;;10.20;99.90;;;;;;4914232;28;20840;-88
2021/12/24 03:40:05;;;;;;;9.87;7.77;;;10.20;99.90;;;;;;4918311;28;20475;-87
2021/12/24 03:42:37;;;;;;;10.30;7.43;;;10.20;99.90;;;;;;4933959;28;20464;-88
2021/12/24 03:45:36;;;;;;;10.83;7.20;;;10.20;99.90;;;;;;4918860;28;20597;-89
2021/12/24 03:48:02;;;;;;;8.00;6.80;;;10.10;99.90;;;;;;4925373;28;21956;-88
2021/12/24 03:50:48;;;;;;;11.97;9.20;;;10.10;99.90;;;;;;4940443;28;21172;-87
2021/12/24 03:54:55;;;;;;;9.47;7.00;;;10.10;99.90;;;;;;4951400;28;20462;-88
2021/12/24 03:56:15;;;;;;;10.00;7.60;;;10.10;99.90;;;;;;4939092;28;20561;-88
2021/12/24 03:58:43;;;;;;;10.13;7.70;;;10.00;99.90;;;;;;4916704;28;20821;-87
2021/12/24 04:01:13;;;;;;;9.00;6.47;;;10.00;99.90;;;;;;4916726;28;20795;-87
2021/12/24 04:03:40;;;;;;;9.07;7.00;;;10.00;99.90;;;;;;4931801;28;20463;-87
2021/12/24 04:06:09;;;;;;;9.53;7.23;;;10.00;99.90;;;;;;4918171;28;20564;-87
2021/12/24 04:08:36;;;;;;;6.90;6.20;;;10.00;99.90;;;;;;4919397;28;20506;-87
2021/12/24 04:11:04;;;;;;;8.33;6.97;;;10.00;99.90;;;;;;4934860;28;20476;-87
2021/12/24 04:13:33;;;;;;;8.23;7.43;;;10.10;99.90;;;;;;4956980;28;20449;-89
2021/12/24 04:16:00;;;;;;;9.27;7.10;;;10.30;99.90;;;;;;4986370;28;20643;-89
2021/12/24 04:26:32;;;;;;;8.23;7.23;;;10.40;99.90;;;;;;4914408;28;21197;-89
2021/12/24 04:28:59;;;;;;;9.80;6.40;;;10.30;99.90;;;;;;4920807;28;21175;-86
2021/12/24 04:31:38;;;;;;;8.60;7.40;;;10.20;99.90;;;;;;4925715;28;20923;-87
2021/12/24 04:34:06;;;;;;;7.50;6.53;;;10.30;99.90;;;;;;4946097;28;20472;-88
2021/12/24 05:03:30;;;;;;;10.90;8.50;;;10.20;99.90;;;;;;4908827;28;20974;-89
2021/12/24 05:06:15;;;;;;;11.77;7.67;;;10.20;99.90;;;;;;4923110;28;20496;-87
2021/12/24 05:11:12;;;;;;;8.97;7.60;;;10.20;99.90;;;;;;4929155;28;20812;-88
2021/12/24 05:13:39;;;;;;;12.23;6.97;;;10.20;99.90;;;;;;4940224;28;20458;-88
2021/12/24 05:16:19;;;;;;;14.00;8.97;;;10.20;99.90;;;;;;4948057;28;20578;-86
2021/12/24 05:21:33;;;;;;;9.47;7.60;;;10.40;99.90;;;;;;4927575;28;21062;-86
2021/12/24 05:24:07;;;;;;;9.43;7.20;;;10.30;99.90;;;;;;4923119;28;21598;-88
2021/12/24 05:26:36;;;;;;;11.87;7.27;;;10.20;99.90;;;;;;4931542;28;21585;-87
2021/12/24 05:29:09;;;;;;;11.43;7.20;;;10.30;99.90;;;;;;4944547;28;20486;-87
2021/12/24 05:31:37;;;;;;;14.57;8.33;;;10.30;99.90;;;;;;4923121;28;20463;-88
2021/12/24 05:34:05;;;;;;;12.53;8.07;;;10.30;99.90;;;;;;4938438;28;20456;-88
2021/12/24 05:36:33;;;;;;;9.30;7.50;;;10.30;99.90;;;;;;4946709;28;20547;-86
2021/12/24 05:39:00;;;;;;;11.27;7.47;;;10.30;99.90;;;;;;4953681;28;20564;-88
2021/12/24 05:41:28;;;;;;;9.97;7.97;;;10.30;99.90;;;;;;4938552;28;21121;-86
2021/12/24 05:43:59;;;;;;;12.20;8.23;;;10.30;99.90;;;;;;4928288;28;20478;-88
2021/12/24 05:46:28;;;;;;;9.40;8.40;;;10.30;99.90;;;;;;4935639;28;20485;-85
2021/12/24 05:48:55;;;;;;;10.80;7.73;;;10.30;99.90;;;;;;4943537;28;20480;-86
2021/12/24 05:51:22;;;;;;;14.53;8.23;;;10.30;99.90;;;;;;4932013;28;21060;-86
2021/12/24 05:53:50;;;;;;;11.83;8.07;;;10.30;99.90;;;;;;4932744;28;21211;-87
2021/12/24 05:56:19;;;;;;;10.23;7.37;;;10.30;99.90;;;;;;4952474;28;20559;-86
2021/12/24 05:58:48;;;;;;;14.77;7.53;;;10.30;99.90;;;;;;4959722;28;20861;-86
2021/12/24 06:01:16;;;;;;;8.47;7.50;;;10.40;99.90;;;;;;4936358;28;20464;-87
2021/12/24 06:03:43;;;;;;;12.13;7.60;;;10.30;99.90;;;;;;4928022;28;21122;-88
2021/12/24 06:06:10;;;;;;;10.10;7.90;;;10.30;99.90;;;;;;4930489;28;21218;-86
2021/12/24 06:08:37;;;;;;;10.30;7.17;;;10.30;99.90;;;;;;4966790;28;20497;-88
2021/12/24 06:11:05;;;;;;;10.37;8.20;;;10.30;99.90;;;;;;4975181;28;20496;-87
2021/12/24 06:13:33;;;;;;;9.60;7.90;;;10.30;99.90;;;;;;4972043;28;20466;-86
2021/12/24 06:16:00;;;;;;;9.47;8.17;;;10.30;99.90;;;;;;4967195;28;20464;-88
2021/12/24 06:18:29;;;;;;;12.43;8.20;;;10.30;99.90;;;;;;4966633;28;20567;-86
2021/12/24 06:21:00;;;;;;;14.70;7.70;;;10.30;99.90;;;;;;4964507;28;21030;-87
2021/12/24 06:23:29;;;;;;;11.10;7.70;;;10.30;99.90;;;;;;4975943;28;20453;-90
2021/12/24 06:25:58;;;;;;;11.03;9.00;;;10.30;99.90;;;;;;4985538;28;20504;-88
2021/12/24 06:28:31;;;;;;;11.73;7.50;;;10.30;99.90;;;;;;4983610;28;20475;-87
2021/12/24 06:31:02;;;;;;;10.13;7.43;;;10.30;99.90;;;;;;4982242;28;20471;-88
2021/12/24 06:33:46;;;;;;;9.93;7.67;;;10.30;99.90;;;;;;4981187;28;20437;-89
2021/12/24 06:36:13;;;;;;;11.03;7.63;;;10.30;99.90;;;;;;4962151;28;20455;-88
2021/12/24 06:38:40;;;;;;;9.10;7.27;;;10.30;99.90;;;;;;4963904;28;20591;-88
2021/12/24 06:41:09;;;;;;;14.77;8.03;;;10.30;99.90;;;;;;4966792;28;20768;-88
2021/12/24 06:43:36;;;;;;;11.10;7.60;;;10.30;99.90;;;;;;4967413;28;20457;-88
2021/12/24 06:46:10;;;;;;;8.27;7.37;;;10.30;99.90;;;;;;4966495;28;20472;-87
2021/12/24 06:48:38;;;;;;;11.60;7.90;;;10.30;99.90;;;;;;4966074;28;20501;-87
2021/12/24 06:51:06;;;;;;;11.20;7.23;;;10.20;99.90;;;;;;4969405;28;20471;-90
2021/12/24 06:53:35;;;;;;;16.10;7.67;;;10.20;99.90;;;;;;4964845;28;20539;-85
2021/12/24 06:56:04;;;;;;;12.03;8.30;;;10.40;99.90;;;;;;4970313;28;20460;-88
2021/12/24 06:58:31;;;;;;;13.70;8.57;;;10.60;99.90;;;;;;4967946;28;20492;-88
2021/12/24 07:00:58;;;;;;;11.17;8.10;;;10.60;99.90;;;;;;4966948;28;20463;-87
2021/12/24 07:03:25;;;;;;;11.10;8.07;;;10.60;99.90;;;;;;4972429;28;20500;-89
2021/12/24 07:05:52;;;;;;;12.03;7.50;;;10.40;99.90;;;;;;4977433;28;20503;-89
2021/12/24 07:08:19;;;;;;;8.80;7.90;;;10.40;99.90;;;;;;4978348;28;20468;-89
2021/12/24 07:10:46;;;;;;;11.53;7.30;;;10.40;99.90;;;;;;4977828;28;20463;-88
2021/12/24 07:13:16;;;;;;;10.60;7.70;;;10.40;99.90;;;;;;4965636;28;20493;-86
2021/12/24 07:15:44;;;;;;;10.37;7.87;;;10.40;99.90;;;;;;4963117;28;20568;-88
2021/12/24 07:18:11;;;;;;;10.73;7.00;;;10.50;99.90;;;;;;4963524;28;20548;-88
2021/12/24 07:20:38;;;;;;;12.87;7.97;;;10.40;99.90;;;;;;4963702;28;20464;-88
2021/12/24 07:23:06;;;;;;;11.80;7.67;;;10.30;99.90;;;;;;4958369;28;20436;-88
2021/12/24 07:25:34;;;;;;;10.10;8.00;;;10.30;99.90;;;;;;4960937;28;21035;-89
2021/12/24 07:28:01;;;;;;;8.73;7.50;;;10.30;99.90;;;;;;4943574;28;20694;-87
2021/12/24 07:30:28;;;;;;;9.20;7.00;;;10.30;99.90;;;;;;4962243;28;20463;-89
2021/12/24 07:32:56;;;;;;;9.77;7.57;;;10.30;99.90;;;;;;4961081;28;20452;-88
2021/12/24 07:35:23;;;;;;;11.60;7.87;;;10.30;99.90;;;;;;4955723;28;20486;-88
2021/12/24 07:37:49;;;;;;;11.43;7.43;;;10.30;99.90;;;;;;4962079;28;20569;-88
2021/12/24 07:40:17;;;;;;;11.60;7.27;;;10.40;99.90;;;;;;4955983;28;21527;-85
2021/12/24 07:42:46;;;;;;;9.33;7.67;;;10.30;99.90;;;;;;4957869;28;20452;-86
2021/12/24 07:45:14;;;;;;;9.50;7.00;;;10.40;99.90;;;;;;4958466;28;20532;-87
2021/12/24 07:47:54;;;;;;;8.80;7.13;;;10.40;99.90;;;;;;4959639;28;20511;-85
2021/12/24 07:52:57;;;;;;;11.90;7.97;;;10.40;99.90;;;;;;4959393;28;21103;-87
2021/12/24 07:55:23;;;;;;;11.00;8.50;;;10.50;99.90;;;;;;4959227;28;20576;-88
2021/12/24 07:57:52;;;;;;;9.80;8.40;;;10.50;99.90;;;;;;4964845;28;20752;-89
2021/12/24 08:00:22;;;;;;;13.30;9.17;;;10.50;99.90;;;;;;4962868;28;20459;-88
2021/12/24 08:02:50;;;;;;;11.37;8.63;;;10.40;99.90;;;;;;4962473;28;20456;-88
2021/12/24 08:05:21;;;;;;;13.13;8.70;;;10.40;99.90;;;;;;4960127;28;20583;-87
2021/12/24 08:07:49;;;;;;;11.43;8.30;;;10.30;99.90;;;;;;4964153;28;20464;-88
2021/12/24 08:10:17;;;;;;;8.87;7.97;;;10.30;99.90;;;;;;4978724;28;20456;-87
2021/12/24 08:12:46;;;;;;;12.20;8.93;;;10.30;99.90;;;;;;4965784;28;20451;-85
2021/12/24 08:15:14;;;;;;;12.27;8.43;;;10.60;99.90;;;;;;4962797;28;20451;-86
2021/12/24 08:17:40;;;;;;;13.07;8.97;;;10.80;99.90;;;;;;4960700;28;20453;-87
2021/12/24 08:20:08;;;;;;;11.60;7.50;;;10.70;99.90;;;;;;4964037;28;20465;-86
2021/12/24 08:22:35;;;;;;;10.10;8.03;;;10.70;99.90;;;;;;4960783;28;20452;-86
2021/12/24 08:25:06;;;;;;;16.43;10.63;;;10.90;99.90;;;;;;4962738;28;21695;-88
2021/12/24 08:27:35;;;;;;;13.13;8.40;;;10.70;99.90;;;;;;4966076;28;20517;-88
2021/12/24 08:30:05;;;;;;;11.90;7.83;;;10.60;99.90;;;;;;4968363;28;20530;-85
2021/12/24 08:32:39;;;;;;;17.23;8.20;;;10.50;99.90;;;;;;4965807;28;21628;-89
2021/12/24 08:35:10;;;;;;;9.97;8.27;;;10.60;99.90;;;;;;4967525;28;20480;-87
2021/12/24 08:37:39;;;;;;;11.40;8.50;;;10.60;99.90;;;;;;4965511;28;20455;-87
2021/12/24 08:40:09;;;;;;;18.77;8.50;;;10.60;99.90;;;;;;4964605;28;20453;-89
2021/12/24 08:42:36;;;;;;;10.60;7.43;;;10.70;99.90;;;;;;4964383;28;20465;-88
2021/12/24 08:45:04;;;;;;;10.80;7.20;;;10.70;99.90;;;;;;4962263;28;20465;-86
2021/12/24 08:47:31;;;;;;;9.93;7.57;;;10.70;99.90;;;;;;4970864;28;20472;-89
2021/12/24 08:49:58;;;;;;;12.90;7.30;;;10.70;99.90;;;;;;4965339;28;20455;-87
2021/12/24 08:52:26;;;;;;;10.07;8.00;;;11.00;99.90;;;;;;4967691;28;20476;-86
2021/12/24 08:54:53;;;;;;;11.97;8.10;;;11.00;99.90;;;;;;4965751;28;20970;-87
2021/12/24 08:57:22;;;;;;;12.13;7.20;;;10.80;99.90;;;;;;4970028;28;20447;-89
2021/12/24 08:59:49;;;;;;;9.80;7.10;;;10.70;99.90;;;;;;4974704;28;20494;-87
2021/12/24 09:02:17;;;;;;;13.63;8.23;;;10.60;99.90;;;;;;4982407;28;20532;-88
2021/12/24 09:04:44;;;;;;;12.30;7.67;;;10.60;99.90;;;;;;4966922;28;20480;-87
2021/12/24 09:07:12;;;;;;;11.73;7.90;;;10.50;99.90;;;;;;4970609;28;20484;-89
2021/12/24 09:09:39;;;;;;;12.67;7.97;;;10.50;99.90;;;;;;4961290;28;21013;-88
2021/12/24 09:12:23;;;;;;;7.67;6.60;;;10.50;99.90;;;;;;4969080;28;20496;-87
2021/12/24 09:14:51;;;;;;;10.67;7.10;;;10.60;99.90;;;;;;4965520;28;21008;-87
2021/12/24 09:17:19;;;;;;;11.27;8.43;;;10.90;99.90;;;;;;4962873;28;20509;-87
2021/12/24 09:19:49;;;;;;;9.33;7.10;;;10.80;99.90;;;;;;4962794;28;20480;-87
2021/12/24 09:22:19;;;;;;;13.00;7.07;;;10.70;99.90;;;;;;4946346;28;20540;-87
2021/12/24 09:24:49;;;;;;;10.30;7.37;;;10.70;99.90;;;;;;4957657;28;20468;-86
2021/12/24 09:27:16;;;;;;;11.20;8.20;;;10.60;99.90;;;;;;4961563;28;21009;-88
2021/12/24 09:29:43;;;;;;;11.73;7.03;;;10.60;99.90;;;;;;4956679;28;20492;-88
2021/12/24 09:32:10;;;;;;;13.10;7.50;;;10.50;99.90;;;;;;4957990;28;20460;-86
2021/12/24 09:34:37;;;;;;;10.70;7.03;;;10.50;99.90;;;;;;4956465;28;20457;-87
2021/12/24 09:37:04;;;;;;;10.13;7.40;;;10.50;99.90;;;;;;4955860;28;20464;-86
2021/12/24 09:39:31;;;;;;;10.53;6.97;;;10.60;99.90;;;;;;4954130;28;21005;-88
2021/12/24 09:41:59;;;;;;;12.93;8.80;;;10.60;99.90;;;;;;4957678;28;20523;-87
2021/12/24 09:44:27;;;;;;;10.23;6.70;;;10.60;99.90;;;;;;4956904;28;20456;-86
2021/12/24 09:46:56;;;;;;;7.60;5.97;;;10.60;99.90;;;;;;4966174;28;20492;-89
2021/12/24 09:49:24;;;;;;;11.73;7.07;;;10.60;99.90;;;;;;4965508;28;20535;-88
2021/12/24 09:51:52;;;;;;;8.83;6.43;;;10.60;99.90;;;;;;4966145;28;20457;-88
2021/12/24 09:54:25;;;;;;;11.67;6.70;;;10.70;99.90;;;;;;4966324;28;20543;-88
2021/12/24 09:56:55;;;;;;;8.40;6.23;;;10.60;99.90;;;;;;4965747;28;20470;-87
2021/12/24 09:59:26;;;;;;;11.77;7.23;;;10.70;99.90;;;;;;4967893;28;20484;-88
2021/12/24 10:01:59;;;;;;;10.70;6.40;;;10.70;99.90;;;;;;4970766;28;20459;-86
2021/12/24 10:04:30;;;;;;;11.27;5.93;;;10.60;99.90;;;;;;4967565;28;20468;-87
2021/12/24 10:07:11;;;;;;;12.03;7.37;;;10.60;99.90;;;;;;4968726;28;20484;-85
2021/12/24 10:09:53;;;;;;;12.17;6.97;;;10.60;99.90;;;;;;4966677;28;20484;-88
2021/12/24 10:12:27;;;;;;;17.10;7.60;;;10.60;99.90;;;;;;4967640;28;21282;-86
2021/12/24 10:14:59;;;;;;;11.27;7.53;;;10.60;99.90;;;;;;4961927;28;20483;-85
2021/12/24 10:17:33;;;;;;;9.90;6.90;;;10.60;99.90;;;;;;4945469;28;20459;-85
2021/12/24 10:20:24;;;;;;;14.90;6.40;;;10.60;99.90;;;;;;4962740;28;20539;-86
2021/12/24 10:22:53;;;;;;;9.70;6.70;;;10.80;99.90;;;;;;4966117;28;20483;-86
2021/12/24 10:25:29;;;;;;;12.57;6.87;;;10.70;99.90;;;;;;4960538;28;20828;-87
2021/12/24 10:27:57;;;;;;;12.53;6.90;;;10.70;99.90;;;;;;4954478;28;20506;-87
2021/12/24 10:30:29;;;;;;;10.00;6.23;;;10.70;99.90;;;;;;4955901;28;20472;-88
2021/12/24 10:32:57;;;;;;;9.30;6.30;;;10.70;99.90;;;;;;4962327;28;20467;-88
2021/12/24 10:35:32;;;;;;;10.60;7.00;;;10.80;99.90;;;;;;4965309;28;20467;-86
2021/12/24 10:38:20;;;;;;;10.20;6.03;;;10.80;99.90;;;;;;4960448;28;20512;-88
2021/12/24 10:41:04;;;;;;;12.30;7.53;;;10.90;99.90;;;;;;4960395;28;20473;-86
2021/12/24 10:43:33;;;;;;;11.50;5.77;;;11.00;99.90;;;;;;4958676;28;20538;-86
2021/12/24 10:46:17;;;;;;;9.63;5.47;;;11.10;99.90;;;;;;4955435;28;20448;-85
2021/12/24 10:49:07;;;;;;;10.37;6.43;;;11.10;99.90;;;;;;4950991;28;20849;-86
2021/12/24 10:51:58;;;;;;;13.23;6.23;;;11.10;99.90;;;;;;4960609;28;20468;-87
2021/12/24 10:55:16;;;;;;;8.13;5.43;;;11.10;99.90;;;;;;4944081;28;20456;-85
2021/12/24 10:57:51;;;;;;;11.47;6.03;;;11.20;99.90;;;;;;4960846;28;20516;-85
2021/12/24 11:00:46;;;;;;;10.60;5.23;;;11.20;99.90;;;;;;4952154;28;20456;-87
2021/12/24 11:03:23;;;;;;;7.40;6.63;;;11.30;99.90;;;;;;4957183;28;20476;-82
2021/12/24 11:06:09;;;;;;;10.00;6.17;;;11.30;99.90;;;;;;4954460;28;21439;-84
2021/12/24 11:08:37;;;;;;;7.53;4.97;;;11.20;99.90;;;;;;4948098;28;20555;-85
2021/12/24 11:11:07;;;;;;;10.30;6.30;;;11.20;99.90;;;;;;4949758;28;21056;-84
2021/12/24 11:13:39;;;;;;;15.90;6.33;;;11.20;99.90;;;;;;4958003;28;20466;-84
2021/12/24 11:16:09;;;;;;;9.13;5.70;;;11.20;99.90;;;;;;4956389;28;20449;-84
2021/12/24 11:18:45;;;;;;;10.30;6.00;;;11.20;99.90;;;;;;4948815;28;20640;-84
2021/12/24 11:21:21;;;;;;;9.23;6.77;;;11.20;99.90;;;;;;4946227;28;20455;-84
2021/12/24 11:23:48;;;;;;;8.30;5.70;;;11.20;99.90;;;;;;4952140;28;20472;-86
2021/12/24 11:26:19;;;;;;;12.30;6.30;;;11.20;99.90;;;;;;4953198;28;20457;-87
2021/12/24 11:28:55;;;;;;;9.53;5.40;;;11.20;99.90;;;;;;4941704;28;20591;-86
2021/12/24 11:31:31;;;;;;;12.80;6.00;;;11.20;99.90;;;;;;4946173;28;20546;-84
2021/12/24 11:34:00;;;;;;;11.13;5.33;;;11.20;99.90;;;;;;4950999;28;20467;-84
2021/12/24 11:36:29;;;;;;;15.50;5.30;;;11.20;99.90;;;;;;4954851;28;20463;-85
2021/12/24 11:38:59;;;;;;;8.50;5.50;;;11.30;99.90;;;;;;4954879;28;20468;-83
2021/12/24 11:41:35;;;;;;;15.13;6.50;;;11.30;99.90;;;;;;4947673;28;20456;-84
2021/12/24 11:44:06;;;;;;;8.60;5.43;;;11.30;99.90;;;;;;4952127;28;20448;-84
2021/12/24 11:46:34;;;;;;;10.43;5.57;;;11.30;99.90;;;;;;4952245;28;20484;-85
2021/12/24 11:49:01;;;;;;;15.07;5.97;;;11.30;99.90;;;;;;4950666;28;20477;-84
2021/12/24 11:51:40;;;;;;;9.80;5.80;;;11.30;99.90;;;;;;4947610;28;20455;-83
2021/12/24 11:54:12;;;;;;;11.70;5.10;;;11.30;99.90;;;;;;4950447;28;20452;-87
2021/12/24 11:56:42;;;;;;;12.87;4.90;;;11.30;99.90;;;;;;4953301;28;20457;-83
2021/12/24 11:59:09;;;;;;;11.50;5.80;;;11.30;99.90;;;;;;4950760;28;20476;-84
2021/12/24 12:01:52;;;;;;;9.47;5.30;;;11.30;99.90;;;;;;4955258;28;20866;-85
2021/12/24 12:04:20;;;;;;;12.93;5.73;;;11.40;99.90;;;;;;4957273;28;20551;-85
2021/12/24 12:06:51;;;;;;;13.90;8.17;;;11.40;99.90;;;;;;4958585;28;20481;-85
2021/12/24 12:09:20;;;;;;;9.57;6.03;;;11.50;99.90;;;;;;4954084;28;20575;-85
2021/12/24 12:12:02;;;;;;;9.27;5.40;;;11.50;99.90;;;;;;4950684;28;21112;-84
2021/12/24 12:14:40;;;;;;;9.17;5.17;;;11.50;99.90;;;;;;4965408;28;20558;-83
2021/12/24 12:17:21;;;;;;;8.17;5.13;;;11.50;99.90;;;;;;4954540;28;20472;-86
2021/12/24 12:20:00;;;;;;;14.03;5.00;;;11.50;99.90;;;;;;4959118;28;20484;-85
2021/12/24 12:25:09;;;;;;;7.83;4.80;;;11.50;99.90;;;;;;4952324;28;20496;-83
2021/12/24 12:27:44;;;;;;;10.43;5.67;;;11.40;99.90;;;;;;4947633;28;20496;-85
2021/12/24 12:30:17;;;;;;;10.00;6.00;;;11.40;99.90;;;;;;4978745;28;20453;-88
2021/12/24 12:32:44;;;;;;;9.77;4.77;;;11.40;99.90;;;;;;4981632;28;20461;-86
2021/12/24 12:35:13;;;;;;;5.43;4.30;;;11.40;99.90;;;;;;4967361;28;20464;-89
2021/12/24 12:37:40;;;;;;;11.77;5.73;;;11.40;99.90;;;;;;4969948;28;20475;-87
2021/12/24 12:40:13;;;;;;;9.20;5.00;;;11.40;99.90;;;;;;4970367;28;20474;-87
2021/12/24 12:43:04;;;;;;;9.57;4.70;;;11.40;99.90;;;;;;4963547;28;20508;-86
2021/12/24 12:45:35;;;;;;;11.37;4.47;;;11.40;99.90;;;;;;4975464;28;20460;-85
2021/12/24 12:48:08;;;;;;;13.77;4.80;;;11.50;99.90;;;;;;4973056;28;20499;-86
2021/12/24 12:50:37;;;;;;;5.60;4.93;;;11.50;99.90;;;;;;4971100;28;20458;-86
2021/12/24 12:53:22;;;;;;;11.53;4.97;;;11.50;99.90;;;;;;4968406;28;20453;-86
2021/12/24 12:56:14;;;;;;;8.17;5.00;;;11.50;99.90;;;;;;4956767;28;20482;-84
2021/12/24 12:58:55;;;;;;;12.20;5.00;;;11.60;99.90;;;;;;4957213;28;20496;-85
2021/12/24 13:01:22;;;;;;;7.70;4.50;;;11.60;99.90;;;;;;4959466;28;20452;-85
2021/12/24 13:03:55;;;;;;;6.70;4.30;;;11.50;99.90;;;;;;4960084;28;20466;-85
2021/12/24 13:06:23;;;;;;;7.90;4.20;;;11.50;99.90;;;;;;4957568;28;21173;-86
2021/12/24 13:08:50;;;;;;;6.60;4.03;;;11.50;99.90;;;;;;4950553;28;20488;-84
2021/12/24 13:11:20;;;;;;;7.73;4.23;;;11.40;99.90;;;;;;4956648;28;20910;-85
2021/12/24 13:13:56;;;;;;;15.33;5.10;;;11.40;99.90;;;;;;4953253;28;20457;-85
2021/12/24 13:16:52;;;;;;;11.03;4.90;;;11.50;99.90;;;;;;4954679;28;20459;-86
2021/12/24 13:22:37;;;;;;;10.60;5.30;;;11.50;99.90;;;;;;4958209;28;20457;-87
2021/12/24 13:24:39;;;;;;;8.07;4.50;;;11.60;99.90;;;;;;4950400;28;20460;-85
2021/12/24 13:27:06;;;;;;;7.17;4.67;;;11.50;99.90;;;;;;4956321;28;20495;-86
2021/12/24 13:29:33;;;;;;;10.30;4.67;;;11.50;99.90;;;;;;4953976;28;20483;-84
2021/12/24 13:32:01;;;;;;;7.70;4.27;;;11.40;99.90;;;;;;4953307;28;21976;-85
2021/12/24 13:34:28;;;;;;;7.73;4.63;;;11.40;99.90;;;;;;4954067;28;20513;-86
2021/12/24 13:37:09;;;;;;;12.00;5.03;;;11.30;99.90;;;;;;4950622;28;20468;-86
2021/12/24 13:39:43;;;;;;;12.23;4.37;;;11.30;99.90;;;;;;4952274;28;21145;-87
2021/12/24 13:42:10;;;;;;;6.97;4.23;;;11.30;99.90;;;;;;4954928;28;20541;-86
2021/12/24 13:44:38;;;;;;;8.07;4.77;;;11.30;99.90;;;;;;4956495;28;20437;-84
2021/12/24 13:47:13;;;;;;;11.57;4.87;;;11.30;99.90;;;;;;4957780;28;20491;-84
2021/12/24 13:50:23;;;;;;;11.73;4.70;;;11.20;99.90;;;;;;4952269;28;20480;-86
2021/12/24 13:55:45;;;;;;;12.10;5.23;;;11.20;99.90;;;;;;4951018;28;20554;-86
2021/12/24 13:58:19;;;;;;;10.90;5.17;;;11.20;99.90;;;;;;4951718;28;20479;-86
2021/12/24 14:00:49;;;;;;;10.83;5.77;;;11.20;99.90;;;;;;4940714;28;20465;-85
2021/12/24 14:03:18;;;;;;;9.47;4.90;;;11.20;99.90;;;;;;4946429;28;20835;-86
2021/12/24 14:05:46;;;;;;;8.70;4.93;;;11.20;99.90;;;;;;4945356;28;20467;-84
2021/12/24 14:08:19;;;;;;;9.77;4.80;;;11.20;99.90;;;;;;4943066;28;20496;-85
2021/12/24 14:10:48;;;;;;;7.53;6.00;;;11.20;99.90;;;;;;4938810;28;20449;-85
2021/12/24 14:13:28;;;;;;;12.37;6.00;;;11.20;99.90;;;;;;4947843;28;20461;-85
2021/12/24 14:16:14;;;;;;;11.40;6.00;;;11.20;99.90;;;;;;4951988;28;20448;-87
2021/12/24 14:18:52;;;;;;;8.00;4.53;;;11.20;99.90;;;;;;4943072;28;20476;-87
2021/12/24 14:24:28;;;;;;;11.00;5.17;;;11.20;99.90;;;;;;4950589;28;20469;-85
2021/12/24 14:27:01;;;;;;;11.43;5.20;;;11.10;99.90;;;;;;4955623;28;20445;-85
2021/12/24 14:29:38;;;;;;;10.93;5.77;;;11.10;99.90;;;;;;4943676;28;20464;-85
2021/12/24 14:32:27;;;;;;;5.57;5.00;;;11.10;99.90;;;;;;4952208;28;20457;-86
2021/12/24 14:34:56;;;;;;;9.80;5.43;;;11.10;99.90;;;;;;4951918;28;20470;-86
2021/12/24 14:37:31;;;;;;;9.30;5.63;;;11.10;99.90;;;;;;4952127;28;20476;-85
2021/12/24 14:40:20;;;;;;;10.50;5.63;;;11.10;99.90;;;;;;4949022;28;20465;-85
2021/12/24 14:42:50;;;;;;;10.50;6.13;;;11.10;99.90;;;;;;4945928;28;20487;-84
2021/12/24 14:45:35;;;;;;;11.47;5.37;;;11.10;99.90;;;;;;4945142;28;20456;-83
2021/12/24 14:48:07;;;;;;;11.77;4.80;;;11.10;99.90;;;;;;4949895;28;20622;-86
2021/12/24 14:50:51;;;;;;;11.97;5.80;;;11.10;99.90;;;;;;4948572;28;20460;-86